sensor_id;sensor_type;location;lat;lon;timestamp;P1;durP1;ratioP1;P2;durP2;ratioP2
76121;SDS011;70471;53.200;6.080;2023-06-04T00:00:42;2.03;;;0.68;;
76121;SDS011;70471;53.200;6.080;2023-06-04T00:05:34;2.25;;;0.80;;
76121;SDS011;70471;53.200;6.080;2023-06-04T00:10:28;2.05;;;0.60;;
76121;SDS011;70471;53.200;6.080;2023-06-04T00:15:21;1.10;;;0.55;;
76121;SDS011;70471;53.200;6.080;2023-06-04T00:20:13;1.77;;;0.80;;
76121;SDS011;70471;53.200;6.080;2023-06-04T00:25:05;3.60;;;0.60;;
76121;SDS011;70471;53.200;6.080;2023-06-04T00:29:59;2.00;;;0.45;;
76121;SDS011;70471;53.200;6.080;2023-06-04T00:34:51;1.38;;;0.70;;
76121;SDS011;70471;53.200;6.080;2023-06-04T00:39:44;1.15;;;0.43;;
76121;SDS011;70471;53.200;6.080;2023-06-04T00:44:35;1.50;;;0.57;;
76121;SDS011;70471;53.200;6.080;2023-06-04T00:49:29;2.42;;;0.50;;
76121;SDS011;70471;53.200;6.080;2023-06-04T00:54:21;1.92;;;0.60;;
76121;SDS011;70471;53.200;6.080;2023-06-04T00:59:13;4.00;;;0.60;;
76121;SDS011;70471;53.200;6.080;2023-06-04T01:04:05;1.40;;;0.50;;
76121;SDS011;70471;53.200;6.080;2023-06-04T01:09:05;0.68;;;0.45;;
76121;SDS011;70471;53.200;6.080;2023-06-04T01:13:56;1.42;;;0.60;;
76121;SDS011;70471;53.200;6.080;2023-06-04T01:18:48;1.75;;;0.52;;
76121;SDS011;70471;53.200;6.080;2023-06-04T01:23:44;0.65;;;0.40;;
76121;SDS011;70471;53.200;6.080;2023-06-04T01:28:40;1.10;;;0.60;;
76121;SDS011;70471;53.200;6.080;2023-06-04T01:33:33;0.70;;;0.60;;
76121;SDS011;70471;53.200;6.080;2023-06-04T01:38:26;1.65;;;0.40;;
76121;SDS011;70471;53.200;6.080;2023-06-04T01:43:17;1.73;;;0.50;;
76121;SDS011;70471;53.200;6.080;2023-06-04T01:48:11;1.20;;;0.57;;
76121;SDS011;70471;53.200;6.080;2023-06-04T01:53:05;1.95;;;0.50;;
76121;SDS011;70471;53.200;6.080;2023-06-04T01:57:59;1.20;;;0.60;;
76121;SDS011;70471;53.200;6.080;2023-06-04T02:02:54;1.40;;;0.73;;
76121;SDS011;70471;53.200;6.080;2023-06-04T02:07:50;1.35;;;0.93;;
76121;SDS011;70471;53.200;6.080;2023-06-04T02:12:52;1.40;;;0.80;;
76121;SDS011;70471;53.200;6.080;2023-06-04T02:17:44;1.20;;;0.50;;
76121;SDS011;70471;53.200;6.080;2023-06-04T02:22:37;1.73;;;0.85;;
76121;SDS011;70471;53.200;6.080;2023-06-04T02:32:22;2.22;;;0.75;;
76121;SDS011;70471;53.200;6.080;2023-06-04T02:42:05;1.63;;;0.88;;
76121;SDS011;70471;53.200;6.080;2023-06-04T02:46:58;0.77;;;0.47;;
76121;SDS011;70471;53.200;6.080;2023-06-04T02:51:50;1.23;;;0.60;;
76121;SDS011;70471;53.200;6.080;2023-06-04T02:56:41;1.02;;;0.40;;
76121;SDS011;70471;53.200;6.080;2023-06-04T03:06:25;0.80;;;0.40;;
76121;SDS011;70471;53.200;6.080;2023-06-04T03:11:17;1.60;;;0.70;;
76121;SDS011;70471;53.200;6.080;2023-06-04T03:16:11;1.65;;;0.77;;
76121;SDS011;70471;53.200;6.080;2023-06-04T03:21:02;1.15;;;0.60;;
76121;SDS011;70471;53.200;6.080;2023-06-04T03:25:56;0.47;;;0.47;;
76121;SDS011;70471;53.200;6.080;2023-06-04T03:30:47;1.88;;;0.98;;
76121;SDS011;70471;53.200;6.080;2023-06-04T03:40:30;1.00;;;0.70;;
76121;SDS011;70471;53.200;6.080;2023-06-04T03:50:15;0.75;;;0.47;;
76121;SDS011;70471;53.200;6.080;2023-06-04T03:59:58;0.88;;;0.43;;
76121;SDS011;70471;53.200;6.080;2023-06-04T04:04:50;2.30;;;0.50;;
76121;SDS011;70471;53.200;6.080;2023-06-04T04:09:44;1.50;;;0.80;;
76121;SDS011;70471;53.200;6.080;2023-06-04T04:14:35;1.83;;;0.70;;
76121;SDS011;70471;53.200;6.080;2023-06-04T04:19:27;1.92;;;0.63;;
76121;SDS011;70471;53.200;6.080;2023-06-04T04:24:24;2.13;;;0.70;;
76121;SDS011;70471;53.200;6.080;2023-06-04T04:29:16;2.05;;;0.70;;
76121;SDS011;70471;53.200;6.080;2023-06-04T04:34:07;2.38;;;1.02;;
76121;SDS011;70471;53.200;6.080;2023-06-04T04:38:59;1.25;;;0.65;;
76121;SDS011;70471;53.200;6.080;2023-06-04T04:43:52;2.60;;;0.82;;
76121;SDS011;70471;53.200;6.080;2023-06-04T04:48:44;1.63;;;0.70;;
76121;SDS011;70471;53.200;6.080;2023-06-04T04:58:27;1.40;;;0.63;;
76121;SDS011;70471;53.200;6.080;2023-06-04T05:08:11;1.15;;;0.77;;
76121;SDS011;70471;53.200;6.080;2023-06-04T05:17:54;2.40;;;0.73;;
76121;SDS011;70471;53.200;6.080;2023-06-04T05:22:47;2.58;;;0.82;;
76121;SDS011;70471;53.200;6.080;2023-06-04T05:27:39;1.98;;;0.88;;
76121;SDS011;70471;53.200;6.080;2023-06-04T05:32:31;3.45;;;0.93;;
76121;SDS011;70471;53.200;6.080;2023-06-04T05:37:23;1.30;;;0.63;;
76121;SDS011;70471;53.200;6.080;2023-06-04T05:42:18;2.17;;;0.73;;
76121;SDS011;70471;53.200;6.080;2023-06-04T05:47:10;1.95;;;0.73;;
76121;SDS011;70471;53.200;6.080;2023-06-04T05:56:52;1.80;;;0.60;;
76121;SDS011;70471;53.200;6.080;2023-06-04T06:01:45;1.30;;;0.70;;
76121;SDS011;70471;53.200;6.080;2023-06-04T06:06:37;1.92;;;0.98;;
76121;SDS011;70471;53.200;6.080;2023-06-04T06:16:20;3.53;;;0.52;;
76121;SDS011;70471;53.200;6.080;2023-06-04T06:26:04;1.85;;;0.73;;
76121;SDS011;70471;53.200;6.080;2023-06-04T06:30:58;1.30;;;0.80;;
76121;SDS011;70471;53.200;6.080;2023-06-04T06:35:49;2.03;;;0.90;;
76121;SDS011;70471;53.200;6.080;2023-06-04T06:40:42;2.03;;;0.80;;
76121;SDS011;70471;53.200;6.080;2023-06-04T06:45:34;3.67;;;0.73;;
76121;SDS011;70471;53.200;6.080;2023-06-04T06:50:25;2.47;;;0.60;;
76121;SDS011;70471;53.200;6.080;2023-06-04T06:55:16;3.53;;;0.70;;
76121;SDS011;70471;53.200;6.080;2023-06-04T07:00:10;1.15;;;0.70;;
76121;SDS011;70471;53.200;6.080;2023-06-04T07:05:02;2.67;;;1.30;;
76121;SDS011;70471;53.200;6.080;2023-06-04T07:09:54;1.25;;;0.70;;
76121;SDS011;70471;53.200;6.080;2023-06-04T07:19:38;1.80;;;1.25;;
76121;SDS011;70471;53.200;6.080;2023-06-04T07:24:30;1.90;;;0.60;;
76121;SDS011;70471;53.200;6.080;2023-06-04T07:29:22;1.13;;;0.38;;
76121;SDS011;70471;53.200;6.080;2023-06-04T07:39:06;2.72;;;0.45;;
76121;SDS011;70471;53.200;6.080;2023-06-04T07:43:58;0.45;;;0.15;;
76121;SDS011;70471;53.200;6.080;2023-06-04T07:48:49;0.77;;;0.30;;
76121;SDS011;70471;53.200;6.080;2023-06-04T07:53:41;0.52;;;0.40;;
76121;SDS011;70471;53.200;6.080;2023-06-04T07:58:36;0.47;;;0.25;;
76121;SDS011;70471;53.200;6.080;2023-06-04T08:03:27;0.75;;;0.30;;
76121;SDS011;70471;53.200;6.080;2023-06-04T08:08:19;1.08;;;0.17;;
76121;SDS011;70471;53.200;6.080;2023-06-04T08:13:10;0.65;;;0.35;;
76121;SDS011;70471;53.200;6.080;2023-06-04T08:18:03;0.43;;;0.20;;
76121;SDS011;70471;53.200;6.080;2023-06-04T08:22:54;0.43;;;0.25;;
76121;SDS011;70471;53.200;6.080;2023-06-04T08:27:46;0.60;;;0.35;;
76121;SDS011;70471;53.200;6.080;2023-06-04T08:32:37;0.85;;;0.20;;
76121;SDS011;70471;53.200;6.080;2023-06-04T08:37:31;0.60;;;0.40;;
76121;SDS011;70471;53.200;6.080;2023-06-04T08:42:25;0.45;;;0.20;;
76121;SDS011;70471;53.200;6.080;2023-06-04T08:47:20;1.15;;;0.40;;
76121;SDS011;70471;53.200;6.080;2023-06-04T08:52:15;0.20;;;0.20;;
76121;SDS011;70471;53.200;6.080;2023-06-04T08:57:08;0.50;;;0.25;;
76121;SDS011;70471;53.200;6.080;2023-06-04T09:02:00;0.40;;;0.20;;
76121;SDS011;70471;53.200;6.080;2023-06-04T09:06:52;0.30;;;0.20;;
76121;SDS011;70471;53.200;6.080;2023-06-04T09:11:46;0.38;;;0.20;;
76121;SDS011;70471;53.200;6.080;2023-06-04T09:16:44;0.60;;;0.20;;
76121;SDS011;70471;53.200;6.080;2023-06-04T09:21:45;0.32;;;0.15;;
76121;SDS011;70471;53.200;6.080;2023-06-04T09:26:41;0.32;;;0.22;;
76121;SDS011;70471;53.200;6.080;2023-06-04T09:31:32;0.28;;;0.20;;
76121;SDS011;70471;53.200;6.080;2023-06-04T09:36:30;1.13;;;0.30;;
76121;SDS011;70471;53.200;6.080;2023-06-04T09:41:22;0.80;;;0.47;;
76121;SDS011;70471;53.200;6.080;2023-06-04T09:46:15;1.05;;;0.50;;
76121;SDS011;70471;53.200;6.080;2023-06-04T09:51:07;0.75;;;0.35;;
76121;SDS011;70471;53.200;6.080;2023-06-04T09:56:02;1.00;;;0.20;;
76121;SDS011;70471;53.200;6.080;2023-06-04T10:00:55;0.32;;;0.20;;
76121;SDS011;70471;53.200;6.080;2023-06-04T10:05:48;0.95;;;0.40;;
76121;SDS011;70471;53.200;6.080;2023-06-04T10:10:41;0.80;;;0.30;;
76121;SDS011;70471;53.200;6.080;2023-06-04T10:15:35;1.35;;;0.22;;
76121;SDS011;70471;53.200;6.080;2023-06-04T10:20:27;0.38;;;0.20;;
76121;SDS011;70471;53.200;6.080;2023-06-04T10:25:19;0.80;;;0.30;;
76121;SDS011;70471;53.200;6.080;2023-06-04T10:30:11;1.75;;;0.30;;
76121;SDS011;70471;53.200;6.080;2023-06-04T10:35:05;1.00;;;0.28;;
76121;SDS011;70471;53.200;6.080;2023-06-04T10:39:58;0.73;;;0.30;;
76121;SDS011;70471;53.200;6.080;2023-06-04T10:44:50;0.35;;;0.20;;
76121;SDS011;70471;53.200;6.080;2023-06-04T10:49:42;0.52;;;0.30;;
76121;SDS011;70471;53.200;6.080;2023-06-04T10:59:26;0.60;;;0.20;;
76121;SDS011;70471;53.200;6.080;2023-06-04T11:09:12;0.60;;;0.28;;
76121;SDS011;70471;53.200;6.080;2023-06-04T11:14:10;1.27;;;0.30;;
76121;SDS011;70471;53.200;6.080;2023-06-04T11:19:03;1.00;;;0.20;;
76121;SDS011;70471;53.200;6.080;2023-06-04T11:23:54;0.40;;;0.35;;
76121;SDS011;70471;53.200;6.080;2023-06-04T11:28:48;0.38;;;0.30;;
76121;SDS011;70471;53.200;6.080;2023-06-04T11:33:44;0.17;;;0.15;;
76121;SDS011;70471;53.200;6.080;2023-06-04T11:38:36;0.93;;;0.40;;
76121;SDS011;70471;53.200;6.080;2023-06-04T11:48:19;0.60;;;0.30;;
76121;SDS011;70471;53.200;6.080;2023-06-04T11:53:12;0.60;;;0.30;;
76121;SDS011;70471;53.200;6.080;2023-06-04T11:58:04;0.60;;;0.30;;
76121;SDS011;70471;53.200;6.080;2023-06-04T12:02:55;2.47;;;0.60;;
76121;SDS011;70471;53.200;6.080;2023-06-04T12:07:47;0.93;;;0.38;;
76121;SDS011;70471;53.200;6.080;2023-06-04T12:12:42;2.22;;;0.50;;
76121;SDS011;70471;53.200;6.080;2023-06-04T12:17:34;0.63;;;0.47;;
76121;SDS011;70471;53.200;6.080;2023-06-04T12:22:25;1.85;;;0.52;;
76121;SDS011;70471;53.200;6.080;2023-06-04T12:27:17;2.45;;;0.57;;
76121;SDS011;70471;53.200;6.080;2023-06-04T12:37:01;1.02;;;0.35;;
76121;SDS011;70471;53.200;6.080;2023-06-04T12:41:55;0.68;;;0.47;;
76121;SDS011;70471;53.200;6.080;2023-06-04T12:51:40;0.60;;;0.38;;
76121;SDS011;70471;53.200;6.080;2023-06-04T12:56:31;0.40;;;0.25;;
76121;SDS011;70471;53.200;6.080;2023-06-04T13:01:23;0.45;;;0.30;;
76121;SDS011;70471;53.200;6.080;2023-06-04T13:11:07;1.35;;;0.40;;
76121;SDS011;70471;53.200;6.080;2023-06-04T13:15:59;0.47;;;0.30;;
76121;SDS011;70471;53.200;6.080;2023-06-04T13:25:42;0.57;;;0.30;;
76121;SDS011;70471;53.200;6.080;2023-06-04T13:30:35;1.85;;;0.60;;
76121;SDS011;70471;53.200;6.080;2023-06-04T13:35:27;0.50;;;0.25;;
76121;SDS011;70471;53.200;6.080;2023-06-04T13:40:19;1.08;;;0.30;;
76121;SDS011;70471;53.200;6.080;2023-06-04T13:45:11;0.88;;;0.47;;
76121;SDS011;70471;53.200;6.080;2023-06-04T13:54:56;0.45;;;0.30;;
76121;SDS011;70471;53.200;6.080;2023-06-04T13:59:48;0.55;;;0.20;;
76121;SDS011;70471;53.200;6.080;2023-06-04T14:04:40;1.02;;;0.40;;
76121;SDS011;70471;53.200;6.080;2023-06-04T14:09:33;0.63;;;0.30;;
76121;SDS011;70471;53.200;6.080;2023-06-04T14:14:25;0.73;;;0.32;;
76121;SDS011;70471;53.200;6.080;2023-06-04T14:19:18;0.93;;;0.32;;
76121;SDS011;70471;53.200;6.080;2023-06-04T14:29:02;1.00;;;0.30;;
76121;SDS011;70471;53.200;6.080;2023-06-04T14:33:54;0.35;;;0.20;;
76121;SDS011;70471;53.200;6.080;2023-06-04T14:43:37;0.43;;;0.30;;
76121;SDS011;70471;53.200;6.080;2023-06-04T14:48:31;0.52;;;0.40;;
76121;SDS011;70471;53.200;6.080;2023-06-04T14:53:22;0.73;;;0.30;;
76121;SDS011;70471;53.200;6.080;2023-06-04T14:58:14;0.82;;;0.30;;
76121;SDS011;70471;53.200;6.080;2023-06-04T15:03:05;0.85;;;0.30;;
76121;SDS011;70471;53.200;6.080;2023-06-04T15:12:50;0.63;;;0.22;;
76121;SDS011;70471;53.200;6.080;2023-06-04T15:17:41;0.43;;;0.35;;
76121;SDS011;70471;53.200;6.080;2023-06-04T15:22:33;0.40;;;0.30;;
76121;SDS011;70471;53.200;6.080;2023-06-04T15:27:25;0.43;;;0.20;;
76121;SDS011;70471;53.200;6.080;2023-06-04T15:32:17;0.50;;;0.30;;
76121;SDS011;70471;53.200;6.080;2023-06-04T15:37:09;0.38;;;0.20;;
76121;SDS011;70471;53.200;6.080;2023-06-04T15:42:00;0.57;;;0.32;;
76121;SDS011;70471;53.200;6.080;2023-06-04T15:46:53;0.63;;;0.30;;
76121;SDS011;70471;53.200;6.080;2023-06-04T15:51:45;0.55;;;0.30;;
76121;SDS011;70471;53.200;6.080;2023-06-04T15:56:37;0.95;;;0.40;;
76121;SDS011;70471;53.200;6.080;2023-06-04T16:01:29;0.30;;;0.15;;
76121;SDS011;70471;53.200;6.080;2023-06-04T16:06:21;0.88;;;0.20;;
76121;SDS011;70471;53.200;6.080;2023-06-04T16:11:13;0.40;;;0.30;;
76121;SDS011;70471;53.200;6.080;2023-06-04T16:16:05;0.52;;;0.30;;
76121;SDS011;70471;53.200;6.080;2023-06-04T16:20:56;0.25;;;0.20;;
76121;SDS011;70471;53.200;6.080;2023-06-04T16:25:49;0.55;;;0.32;;
76121;SDS011;70471;53.200;6.080;2023-06-04T16:30:41;0.38;;;0.20;;
76121;SDS011;70471;53.200;6.080;2023-06-04T16:35:32;0.50;;;0.50;;
76121;SDS011;70471;53.200;6.080;2023-06-04T16:40:24;0.30;;;0.20;;
76121;SDS011;70471;53.200;6.080;2023-06-04T16:45:17;0.82;;;0.20;;
76121;SDS011;70471;53.200;6.080;2023-06-04T16:50:09;0.30;;;0.30;;
76121;SDS011;70471;53.200;6.080;2023-06-04T16:55:02;1.83;;;0.63;;
76121;SDS011;70471;53.200;6.080;2023-06-04T16:59:54;0.50;;;0.30;;
76121;SDS011;70471;53.200;6.080;2023-06-04T17:04:47;0.50;;;0.40;;
76121;SDS011;70471;53.200;6.080;2023-06-04T17:09:39;0.20;;;0.15;;
76121;SDS011;70471;53.200;6.080;2023-06-04T17:14:30;0.40;;;0.32;;
76121;SDS011;70471;53.200;6.080;2023-06-04T17:19:22;1.08;;;0.40;;
76121;SDS011;70471;53.200;6.080;2023-06-04T17:24:14;0.50;;;0.40;;
76121;SDS011;70471;53.200;6.080;2023-06-04T17:29:06;0.20;;;0.20;;
76121;SDS011;70471;53.200;6.080;2023-06-04T17:33:58;0.82;;;0.40;;
76121;SDS011;70471;53.200;6.080;2023-06-04T17:38:49;0.55;;;0.52;;
76121;SDS011;70471;53.200;6.080;2023-06-04T17:43:42;1.08;;;0.38;;
76121;SDS011;70471;53.200;6.080;2023-06-04T17:48:33;0.38;;;0.30;;
76121;SDS011;70471;53.200;6.080;2023-06-04T17:53:25;0.30;;;0.30;;
76121;SDS011;70471;53.200;6.080;2023-06-04T17:58:17;0.40;;;0.30;;
76121;SDS011;70471;53.200;6.080;2023-06-04T18:03:10;0.90;;;0.40;;
76121;SDS011;70471;53.200;6.080;2023-06-04T18:08:02;0.52;;;0.30;;
76121;SDS011;70471;53.200;6.080;2023-06-04T18:12:54;0.40;;;0.30;;
76121;SDS011;70471;53.200;6.080;2023-06-04T18:17:45;2.17;;;0.30;;
76121;SDS011;70471;53.200;6.080;2023-06-04T18:22:39;1.27;;;0.30;;
76121;SDS011;70471;53.200;6.080;2023-06-04T18:27:30;1.48;;;0.20;;
76121;SDS011;70471;53.200;6.080;2023-06-04T18:32:22;0.75;;;0.30;;
76121;SDS011;70471;53.200;6.080;2023-06-04T18:37:14;0.32;;;0.30;;
76121;SDS011;70471;53.200;6.080;2023-06-04T18:42:07;0.70;;;0.30;;
76121;SDS011;70471;53.200;6.080;2023-06-04T18:47:00;0.50;;;0.20;;
76121;SDS011;70471;53.200;6.080;2023-06-04T18:51:52;0.80;;;0.20;;
76121;SDS011;70471;53.200;6.080;2023-06-04T18:56:44;0.28;;;0.28;;
76121;SDS011;70471;53.200;6.080;2023-06-04T19:01:37;1.02;;;0.30;;
76121;SDS011;70471;53.200;6.080;2023-06-04T19:06:28;0.40;;;0.32;;
76121;SDS011;70471;53.200;6.080;2023-06-04T19:11:20;0.50;;;0.45;;
76121;SDS011;70471;53.200;6.080;2023-06-04T19:16:12;0.30;;;0.30;;
76121;SDS011;70471;53.200;6.080;2023-06-04T19:21:04;0.50;;;0.43;;
76121;SDS011;70471;53.200;6.080;2023-06-04T19:25:56;0.77;;;0.47;;
76121;SDS011;70471;53.200;6.080;2023-06-04T19:30:47;0.60;;;0.43;;
76121;SDS011;70471;53.200;6.080;2023-06-04T19:35:39;1.17;;;0.47;;
76121;SDS011;70471;53.200;6.080;2023-06-04T19:40:32;0.45;;;0.40;;
76121;SDS011;70471;53.200;6.080;2023-06-04T19:45:23;0.88;;;0.40;;
76121;SDS011;70471;53.200;6.080;2023-06-04T19:50:15;0.50;;;0.50;;
76121;SDS011;70471;53.200;6.080;2023-06-04T19:55:07;0.35;;;0.32;;
76121;SDS011;70471;53.200;6.080;2023-06-04T20:00:01;0.40;;;0.40;;
76121;SDS011;70471;53.200;6.080;2023-06-04T20:04:54;1.35;;;0.68;;
76121;SDS011;70471;53.200;6.080;2023-06-04T20:09:45;0.80;;;0.50;;
76121;SDS011;70471;53.200;6.080;2023-06-04T20:14:37;0.73;;;0.60;;
76121;SDS011;70471;53.200;6.080;2023-06-04T20:19:29;1.30;;;0.40;;
76121;SDS011;70471;53.200;6.080;2023-06-04T20:24:21;1.80;;;0.50;;
76121;SDS011;70471;53.200;6.080;2023-06-04T20:29:13;0.57;;;0.57;;
76121;SDS011;70471;53.200;6.080;2023-06-04T20:34:04;0.60;;;0.60;;
76121;SDS011;70471;53.200;6.080;2023-06-04T20:38:57;0.68;;;0.50;;
76121;SDS011;70471;53.200;6.080;2023-06-04T20:43:50;1.10;;;0.80;;
76121;SDS011;70471;53.200;6.080;2023-06-04T20:48:42;0.70;;;0.50;;
76121;SDS011;70471;53.200;6.080;2023-06-04T20:53:34;1.25;;;0.82;;
76121;SDS011;70471;53.200;6.080;2023-06-04T20:58:27;1.70;;;0.85;;
76121;SDS011;70471;53.200;6.080;2023-06-04T21:03:19;0.80;;;0.63;;
76121;SDS011;70471;53.200;6.080;2023-06-04T21:08:11;3.55;;;0.63;;
76121;SDS011;70471;53.200;6.080;2023-06-04T21:13:02;1.25;;;0.80;;
76121;SDS011;70471;53.200;6.080;2023-06-04T21:17:55;0.88;;;0.68;;
76121;SDS011;70471;53.200;6.080;2023-06-04T21:22:46;1.08;;;0.70;;
76121;SDS011;70471;53.200;6.080;2023-06-04T21:27:38;1.25;;;0.82;;
76121;SDS011;70471;53.200;6.080;2023-06-04T21:32:29;0.77;;;0.77;;
76121;SDS011;70471;53.200;6.080;2023-06-04T21:37:22;2.05;;;0.93;;
76121;SDS011;70471;53.200;6.080;2023-06-04T21:42:14;0.85;;;0.63;;
76121;SDS011;70471;53.200;6.080;2023-06-04T21:47:05;1.38;;;0.70;;
76121;SDS011;70471;53.200;6.080;2023-06-04T21:51:57;0.80;;;0.70;;
76121;SDS011;70471;53.200;6.080;2023-06-04T21:56:50;1.48;;;0.70;;
76121;SDS011;70471;53.200;6.080;2023-06-04T22:01:41;1.38;;;0.85;;
76121;SDS011;70471;53.200;6.080;2023-06-04T22:06:33;1.00;;;0.70;;
76121;SDS011;70471;53.200;6.080;2023-06-04T22:11:24;1.58;;;0.70;;
76121;SDS011;70471;53.200;6.080;2023-06-04T22:16:17;0.98;;;0.70;;
76121;SDS011;70471;53.200;6.080;2023-06-04T22:21:09;0.82;;;0.65;;
76121;SDS011;70471;53.200;6.080;2023-06-04T22:26:00;1.13;;;0.90;;
76121;SDS011;70471;53.200;6.080;2023-06-04T22:30:52;0.55;;;0.32;;
76121;SDS011;70471;53.200;6.080;2023-06-04T22:35:45;1.23;;;0.88;;
76121;SDS011;70471;53.200;6.080;2023-06-04T22:40:36;0.90;;;0.60;;
76121;SDS011;70471;53.200;6.080;2023-06-04T22:45:28;0.82;;;0.60;;
76121;SDS011;70471;53.200;6.080;2023-06-04T22:50:19;0.60;;;0.60;;
76121;SDS011;70471;53.200;6.080;2023-06-04T22:55:12;0.57;;;0.57;;
76121;SDS011;70471;53.200;6.080;2023-06-04T23:00:04;0.77;;;0.50;;
76121;SDS011;70471;53.200;6.080;2023-06-04T23:04:56;0.50;;;0.50;;
76121;SDS011;70471;53.200;6.080;2023-06-04T23:09:48;0.70;;;0.57;;
76121;SDS011;70471;53.200;6.080;2023-06-04T23:14:40;0.60;;;0.60;;
76121;SDS011;70471;53.200;6.080;2023-06-04T23:19:32;0.77;;;0.55;;
76121;SDS011;70471;53.200;6.080;2023-06-04T23:24:23;0.50;;;0.30;;
76121;SDS011;70471;53.200;6.080;2023-06-04T23:29:16;0.50;;;0.50;;
76121;SDS011;70471;53.200;6.080;2023-06-04T23:34:09;0.60;;;0.47;;
76121;SDS011;70471;53.200;6.080;2023-06-04T23:39:01;1.30;;;0.57;;
76121;SDS011;70471;53.200;6.080;2023-06-04T23:43:53;0.45;;;0.30;;
76121;SDS011;70471;53.200;6.080;2023-06-04T23:48:45;0.47;;;0.40;;
76121;SDS011;70471;53.200;6.080;2023-06-04T23:53:38;0.95;;;0.60;;
76121;SDS011;70471;53.200;6.080;2023-06-04T23:58:29;0.70;;;0.50;;
